Linzy — SIRU — position and weather

sailwx.info

Track history (hours):
 
Tides and Currents Weather Stations Pressure Air Temp Water Temp Dewpoint Dewpoint Depression Visibility Wind Speed Wind Dir Waves Ship Positions

Linzy

Last reported at 2016-May-02 10:33 UTC. Time now 2016-May-02 10:43 UTC.
Position N 55°33' E 014°42'.

Length 15 m.

Type: Fishing. MMSI: 265507290.

Date/timePositionNaut miles runAvg speedWind from/ knotsBaromVisibWave heightAir tempDewpointWater temp
2016-May-02 10:33N 55°33' E 014°42'3 3.1
2016-May-02 09:33N 55°32' E 014°47'3 3.1
2016-May-02 08:33N 55°31' E 014°51'1 1.1
2016-May-02 07:32N 55°29' E 014°51'3 3.0
2016-May-02 06:33N 55°31' E 014°47'3 3.1
2016-May-02 05:33N 55°33' E 014°42'3 3.1
2016-May-02 04:33N 55°34' E 014°37'4 3.9
2016-May-02 03:33N 55°35' E 014°31'5 5.0
2016-May-02 02:29N 55°33' E 014°22'0 0.0
2016-May-02 01:30N 55°33' E 014°22'0 0.0
2016-May-02 00:30N 55°33' E 014°22'0 0.0
2016-May-01 23:30N 55°33' E 014°22'0 0.0
2016-May-01 22:18N 55°33' E 014°22'0 0.0
2016-May-01 21:30N 55°33' E 014°22'0 0.0
2016-May-01 20:24N 55°33' E 014°22'0 0.0
2016-May-01 19:30N 55°33' E 014°22'0 0.0
2016-May-01 18:24N 55°33' E 014°22'0 0.4
2016-May-01 17:29N 55°34' E 014°22'2 1.8
2016-May-01 16:31N 55°34' E 014°25'5 5.5
2016-May-01 15:33N 55°34' E 014°35'3 3.0
2016-May-01 14:33N 55°34' E 014°40'3 3.1
2016-May-01 13:33N 55°33' E 014°45'3 3.1
2016-May-01 12:33N 55°31' E 014°49'3 3.1
2016-May-01 11:33N 55°30' E 014°55'2 2.4
2016-May-01 10:33N 55°29' E 014°59'3 3.1
2016-May-01 09:33N 55°29' E 014°53'0 0.1
2016-May-01 08:31N 55°29' E 014°53'3 3.0
2016-May-01 07:33N 55°30' E 014°48'3 2.9
2016-May-01 06:33N 55°31' E 014°43'3 2.9
2016-May-01 05:33N 55°33' E 014°39'3 3.1
2016-May-01 04:33N 55°35' E 014°35'5 5.1
2016-May-01 03:31N 55°34' E 014°26'2 2.5
2016-May-01 02:32N 55°33' E 014°22'0 0.0
2016-May-01 01:32N 55°33' E 014°22'0 0.0
2016-May-01 00:32N 55°33' E 014°22'0 0.0
2016-Apr-30 23:32N 55°33' E 014°22'0 0.0
2016-Apr-30 22:32N 55°33' E 014°22'0 0.0
2016-Apr-30 21:32N 55°33' E 014°22'0 0.0
2016-Apr-30 20:32N 55°33' E 014°22'0 0.0
2016-Apr-30 19:32N 55°33' E 014°22'0 0.0
2016-Apr-30 18:32N 55°33' E 014°22'0 0.0
2016-Apr-30 17:32N 55°33' E 014°22'0 0.0
2016-Apr-30 16:32N 55°33' E 014°22'0 0.0
2016-Apr-30 15:32N 55°33' E 014°22'0 0.0
2016-Apr-30 14:32N 55°33' E 014°22'0 0.0
2016-Apr-30 13:20N 55°33' E 014°22'0 0.0
2016-Apr-30 12:14N 55°33' E 014°22'0 0.0
2016-Apr-30 11:32N 55°33' E 014°22'0 0.0
2016-Apr-30 10:32N 55°33' E 014°22'0 0.0
2016-Apr-30 09:26N 55°33' E 014°22'0 0.0
2016-Apr-30 08:32N 55°33' E 014°22'0 0.0
2016-Apr-30 07:32N 55°33' E 014°22'0 0.0
2016-Apr-30 06:32N 55°33' E 014°22'0 0.0
2016-Apr-30 05:20N 55°33' E 014°22'0 0.0
2016-Apr-30 04:20N 55°33' E 014°22'0 0.0
2016-Apr-30 03:32N 55°33' E 014°22'0 0.0
2016-Apr-30 02:26N 55°33' E 014°22'0 0.0
2016-Apr-30 01:32N 55°33' E 014°22'0 0.0
2016-Apr-29 23:32N 55°33' E 014°22'0 0.0
2016-Apr-29 22:32N 55°33' E 014°22'0 0.0
2016-Apr-29 21:32N 55°33' E 014°22'0 0.0
2016-Apr-29 20:32N 55°33' E 014°22'0 0.0
2016-Apr-29 19:32N 55°33' E 014°22'0 0.0
2016-Apr-29 18:20N 55°33' E 014°22'0 0.0
2016-Apr-29 17:20N 55°33' E 014°22'0 0.0
2016-Apr-29 16:32N 55°33' E 014°22'0 0.0
2016-Apr-29 15:08N 55°33' E 014°22'0 0.0
2016-Apr-29 14:32N 55°33' E 014°22'0 0.0
2016-Apr-29 13:14N 55°33' E 014°22'0 0.0
2016-Apr-29 12:20N 55°33' E 014°22'0 0.0
2016-Apr-29 11:32N 55°33' E 014°22'0 0.0
2016-Apr-29 10:32N 55°33' E 014°22'0 0.0
2016-Apr-29 09:32N 55°33' E 014°22'0 0.0
2016-Apr-29 08:32N 55°33' E 014°22'0 0.0
2016-Apr-29 07:32N 55°33' E 014°22'0 0.0
2016-Apr-29 06:20N 55°33' E 014°22'0 0.0
2016-Apr-29 05:20N 55°33' E 014°22'0 0.0
2016-Apr-29 04:32N 55°33' E 014°22'0 0.0
2016-Apr-29 03:32N 55°33' E 014°22'0 0.0
2016-Apr-29 02:32N 55°33' E 014°22'0 0.0
2016-Apr-29 01:32N 55°33' E 014°22'0 0.0
2016-Apr-29 00:26N 55°33' E 014°22'0 0.0
2016-Apr-28 23:32N 55°33' E 014°22'0 0.0
2016-Apr-28 22:32N 55°33' E 014°22'0 0.0
2016-Apr-28 21:32N 55°33' E 014°22'0 0.0
2016-Apr-28 20:32N 55°33' E 014°22'0 0.0
2016-Apr-28 19:26N 55°33' E 014°22'0 0.0
2016-Apr-28 18:32N 55°33' E 014°22'0 0.0
2016-Apr-28 17:32N 55°33' E 014°22'4 3.8
2016-Apr-28 16:33N 55°34' E 014°28'6 5.4
2016-Apr-28 15:30N 55°35' E 014°38'2 1.6
2016-Apr-28 14:34N 55°34' E 014°39'3 3.1
2016-Apr-28 13:32N 55°32' E 014°44'3 2.8
2016-Apr-28 12:33N 55°31' E 014°48'3 2.9
2016-Apr-28 11:33N 55°30' E 014°53'3 3.0
2016-Apr-28 10:31N 55°30' E 014°58'3 1.6
2016-Apr-28 08:33N 55°30' E 014°53'3 2.9
2016-Apr-28 07:33N 55°30' E 014°48'3 3.0
2016-Apr-28 06:31N 55°32' E 014°43'3 2.8
2016-Apr-28 05:33N 55°34' E 014°39'3 2.9
2016-Apr-28 04:33N 55°35' E 014°35'5 5.2
2016-Apr-28 03:33N 55°34' E 014°26'3 2.6
2016-Apr-28 02:32N 55°33' E 014°22'0 0.0
2016-Apr-28 01:26N 55°33' E 014°22'0 0.0
2016-Apr-28 00:32N 55°33' E 014°22'0 0.0
2016-Apr-27 23:32N 55°33' E 014°22'0 0.0
2016-Apr-27 22:32N 55°33' E 014°22'0 0.0
2016-Apr-27 21:32N 55°33' E 014°22'0 0.0
2016-Apr-27 20:32N 55°33' E 014°22'0 0.0
2016-Apr-27 19:32N 55°33' E 014°22'0 0.0
2016-Apr-27 18:20N 55°33' E 014°22'0 0.0
2016-Apr-27 17:32N 55°33' E 014°22'0 0.0
2016-Apr-27 16:32N 55°33' E 014°22'0 0.0
2016-Apr-27 15:32N 55°33' E 014°22'0 0.0
2016-Apr-27 14:26N 55°33' E 014°22'0 0.0
2016-Apr-27 13:14N 55°33' E 014°22'0 0.0
2016-Apr-27 12:32N 55°33' E 014°22'0 0.0
2016-Apr-27 11:32N 55°33' E 014°22'0 0.0
2016-Apr-27 10:32N 55°33' E 014°22'0 0.0
2016-Apr-27 09:32N 55°33' E 014°22'0 0.0
2016-Apr-27 08:32N 55°33' E 014°22'0 0.0
2016-Apr-27 07:32N 55°33' E 014°22'0 0.0
2016-Apr-27 06:26N 55°33' E 014°22'0 0.0
2016-Apr-27 05:26N 55°33' E 014°22'0 0.0
2016-Apr-27 04:32N 55°33' E 014°22'0 0.0
2016-Apr-27 03:32N 55°33' E 014°22'0 0.0
2016-Apr-27 02:32N 55°33' E 014°22'0 0.0
2016-Apr-27 01:32N 55°33' E 014°22'0 0.0
2016-Apr-27 00:20N 55°33' E 014°22'0 0.0
2016-Apr-26 23:32N 55°33' E 014°22'0 0.0
2016-Apr-26 22:32N 55°33' E 014°22'0 0.0
2016-Apr-26 21:32N 55°33' E 014°22'0 0.0
2016-Apr-26 20:32N 55°33' E 014°22'0 0.0
2016-Apr-26 19:32N 55°33' E 014°22'0 0.0
2016-Apr-26 18:32N 55°33' E 014°22'0 0.0
2016-Apr-26 17:32N 55°33' E 014°22'0 0.0
2016-Apr-26 16:32N 55°33' E 014°22'0 0.0
2016-Apr-26 15:14N 55°33' E 014°22'0 0.0
2016-Apr-26 14:32N 55°33' E 014°22'0 0.0
2016-Apr-26 13:32N 55°33' E 014°22'0 0.0
2016-Apr-26 12:08N 55°33' E 014°22'0 0.0
2016-Apr-26 11:32N 55°33' E 014°22'0 0.0
2016-Apr-26 10:32N 55°33' E 014°22'0 0.0
2016-Apr-26 09:32N 55°33' E 014°22'0 0.0
2016-Apr-26 08:32N 55°33' E 014°22'0 0.0
2016-Apr-26 07:32N 55°33' E 014°22'0 0.0
2016-Apr-26 06:32N 55°33' E 014°22'0 0.0
2016-Apr-26 05:32N 55°33' E 014°22'0 0.0
2016-Apr-26 04:26N 55°33' E 014°22'0 0.0
2016-Apr-26 03:32N 55°33' E 014°22'0 0.0
2016-Apr-26 02:32N 55°33' E 014°22'0 0.0
2016-Apr-26 01:32N 55°33' E 014°22'0 0.0
2016-Apr-26 00:32N 55°33' E 014°22'0 0.0
2016-Apr-25 23:32N 55°33' E 014°22'0 0.0
2016-Apr-25 22:32N 55°33' E 014°22'0 0.0
2016-Apr-25 21:32N 55°33' E 014°22'0 0.0
2016-Apr-25 20:32N 55°33' E 014°22'0 0.0
2016-Apr-25 19:26N 55°33' E 014°22'0 0.0
2016-Apr-25 18:26N 55°33' E 014°22'0 0.0
2016-Apr-25 17:32N 55°33' E 014°22'3 2.9
2016-Apr-25 16:33N 55°34' E 014°26'5 4.7
2016-Apr-25 15:33N 55°35' E 014°34'2 1.5
2016-Apr-25 14:33N 55°35' E 014°37'3 3.0
2016-Apr-25 13:32N 55°33' E 014°41'3 3.0
2016-Apr-25 12:33N 55°32' E 014°46'3 2.7
2016-Apr-25 11:33N 55°30' E 014°49'3 2.9
2016-Apr-25 10:33N 55°29' E 014°55'3 2.8
2016-Apr-25 09:29N 55°30' E 014°60'5 2.5
2016-Apr-25 07:33N 55°29' E 014°51'3 2.9
2016-Apr-25 06:33N 55°31' E 014°47'3 3.1
2016-Apr-25 05:33N 55°32' E 014°42'3 3.0
2016-Apr-25 04:33N 55°34' E 014°38'4 3.9
2016-Apr-25 03:31N 55°35' E 014°31'6 5.6
2016-Apr-25 02:30N 55°33' E 014°22'0 0.0
2016-Apr-25 01:24N 55°33' E 014°22'0 0.0
2016-Apr-25 00:30N 55°33' E 014°22'0 0.0
2016-Apr-24 23:30N 55°33' E 014°21'0 0.0
2016-Apr-24 22:30N 55°33' E 014°22'0 0.0
2016-Apr-24 21:30N 55°33' E 014°22'0 0.0
2016-Apr-24 20:30N 55°33' E 014°22'0 0.0
2016-Apr-24 19:30N 55°33' E 014°22'0 0.0
2016-Apr-24 18:30N 55°33' E 014°22'0 0.0
2016-Apr-24 17:24N 55°33' E 014°22'0 0.0
2016-Apr-24 16:30N 55°33' E 014°22'0 0.0
2016-Apr-24 15:24N 55°33' E 014°22'0 0.0
2016-Apr-24 14:30N 55°33' E 014°22'0 0.0
2016-Apr-24 13:24N 55°33' E 014°22'0 0.0
2016-Apr-24 12:30N 55°33' E 014°22'0 0.0
2016-Apr-24 11:18N 55°33' E 014°22'0 0.0
2016-Apr-24 10:30N 55°33' E 014°22'0 0.0
2016-Apr-24 09:24N 55°33' E 014°22'0 0.0
2016-Apr-24 08:24N 55°33' E 014°22'0 0.0
2016-Apr-24 07:30N 55°33' E 014°22'0 0.0
2016-Apr-24 06:30N 55°33' E 014°22'0 0.0
2016-Apr-24 04:30N 55°33' E 014°21'0 0.0
2016-Apr-24 03:30N 55°33' E 014°22'0 0.0
2016-Apr-24 02:30N 55°33' E 014°22'0 0.0
2016-Apr-24 01:30N 55°33' E 014°22'0 0.0
2016-Apr-24 00:30N 55°33' E 014°22'0 0.0
2016-Apr-23 23:30N 55°33' E 014°22'0 0.0
2016-Apr-23 22:31N 55°33' E 014°22'0 0.0
2016-Apr-23 21:31N 55°33' E 014°22'0 0.0
2016-Apr-23 20:31N 55°33' E 014°22'0 0.0
2016-Apr-23 19:19N 55°33' E 014°22'0 0.0
2016-Apr-23 18:31N 55°33' E 014°22'0 0.0
2016-Apr-23 17:19N 55°33' E 014°22'0 0.0
2016-Apr-23 16:25N 55°33' E 014°22'0 0.0
2016-Apr-23 15:31N 55°33' E 014°22'0 0.0
2016-Apr-23 14:31N 55°33' E 014°22'0 0.0
2016-Apr-23 13:31N 55°33' E 014°22'0 0.0
2016-Apr-23 12:31N 55°33' E 014°22'0 0.0
2016-Apr-23 11:19N 55°33' E 014°22'0 0.0
2016-Apr-23 10:31N 55°33' E 014°22'0 0.0
2016-Apr-23 09:31N 55°33' E 014°22'0 0.0
2016-Apr-23 08:31N 55°33' E 014°22'0 0.0
2016-Apr-23 07:31N 55°33' E 014°22'0 0.0
2016-Apr-23 06:31N 55°33' E 014°22'0 0.0
2016-Apr-23 05:31N 55°33' E 014°22'0 0.0
2016-Apr-23 04:31N 55°33' E 014°22'0 0.0
2016-Apr-23 03:31N 55°33' E 014°22'0 0.0
2016-Apr-23 02:31N 55°33' E 014°22'0 0.0
2016-Apr-23 01:25N 55°33' E 014°22'0 0.0
2016-Apr-23 00:31N 55°33' E 014°22'0 0.0
2016-Apr-22 23:31N 55°33' E 014°22'0 0.0
2016-Apr-22 22:31N 55°33' E 014°22'0 0.0
2016-Apr-22 21:31N 55°33' E 014°22'0 0.0
2016-Apr-22 20:25N 55°33' E 014°22'0 0.0
2016-Apr-22 19:25N 55°33' E 014°22'0 0.0
2016-Apr-22 18:31N 55°33' E 014°22'0 0.0
2016-Apr-22 17:31N 55°33' E 014°22'0 0.0
2016-Apr-22 16:25N 55°33' E 014°22'0 0.0
2016-Apr-22 15:31N 55°33' E 014°22'0 0.0
2016-Apr-22 14:31N 55°33' E 014°22'0 0.0
2016-Apr-22 13:31N 55°33' E 014°22'0 0.0
2016-Apr-22 12:31N 55°33' E 014°22'0 0.0
2016-Apr-22 11:31N 55°33' E 014°22'  
Track history (hours):
 
Tides and Currents Weather Stations Pressure Air Temp Water Temp Dewpoint Dewpoint Depression Visibility Wind Speed Wind Dir Waves Ship Positions

Linzy

Last reported at 2016-May-02 10:33 UTC. Time now 2016-May-02 10:43 UTC.
Position N 55°33' E 014°42'.

Length 15 m.

Type: Fishing. MMSI: 265507290.

Date/timePositionNaut miles runAvg speedWind from/ knotsBaromVisibWave heightAir tempDewpointWater temp
2016-May-02 10:33N 55°33' E 014°42'3 3.1
2016-May-02 09:33N 55°32' E 014°47'3 3.1
2016-May-02 08:33N 55°31' E 014°51'1 1.1
2016-May-02 07:32N 55°29' E 014°51'3 3.0
2016-May-02 06:33N 55°31' E 014°47'3 3.1
2016-May-02 05:33N 55°33' E 014°42'3 3.1
2016-May-02 04:33N 55°34' E 014°37'4 3.9
2016-May-02 03:33N 55°35' E 014°31'5 5.0
2016-May-02 02:29N 55°33' E 014°22'0 0.0
2016-May-02 01:30N 55°33' E 014°22'0 0.0
2016-May-02 00:30N 55°33' E 014°22'0 0.0
2016-May-01 23:30N 55°33' E 014°22'0 0.0
2016-May-01 22:18N 55°33' E 014°22'0 0.0
2016-May-01 21:30N 55°33' E 014°22'0 0.0
2016-May-01 20:24N 55°33' E 014°22'0 0.0
2016-May-01 19:30N 55°33' E 014°22'0 0.0
2016-May-01 18:24N 55°33' E 014°22'0 0.4
2016-May-01 17:29N 55°34' E 014°22'2 1.8
2016-May-01 16:31N 55°34' E 014°25'5 5.5
2016-May-01 15:33N 55°34' E 014°35'3 3.0
2016-May-01 14:33N 55°34' E 014°40'3 3.1
2016-May-01 13:33N 55°33' E 014°45'3 3.1
2016-May-01 12:33N 55°31' E 014°49'3 3.1
2016-May-01 11:33N 55°30' E 014°55'2 2.4
2016-May-01 10:33N 55°29' E 014°59'3 3.1
2016-May-01 09:33N 55°29' E 014°53'0 0.1
2016-May-01 08:31N 55°29' E 014°53'3 3.0
2016-May-01 07:33N 55°30' E 014°48'3 2.9
2016-May-01 06:33N 55°31' E 014°43'3 2.9
2016-May-01 05:33N 55°33' E 014°39'3 3.1
2016-May-01 04:33N 55°35' E 014°35'5 5.1
2016-May-01 03:31N 55°34' E 014°26'2 2.5
2016-May-01 02:32N 55°33' E 014°22'0 0.0
2016-May-01 01:32N 55°33' E 014°22'0 0.0
2016-May-01 00:32N 55°33' E 014°22'0 0.0
2016-Apr-30 23:32N 55°33' E 014°22'0 0.0
2016-Apr-30 22:32N 55°33' E 014°22'0 0.0
2016-Apr-30 21:32N 55°33' E 014°22'0 0.0
2016-Apr-30 20:32N 55°33' E 014°22'0 0.0
2016-Apr-30 19:32N 55°33' E 014°22'0 0.0
2016-Apr-30 18:32N 55°33' E 014°22'0 0.0
2016-Apr-30 17:32N 55°33' E 014°22'0 0.0
2016-Apr-30 16:32N 55°33' E 014°22'0 0.0
2016-Apr-30 15:32N 55°33' E 014°22'0 0.0
2016-Apr-30 14:32N 55°33' E 014°22'0 0.0
2016-Apr-30 13:20N 55°33' E 014°22'0 0.0
2016-Apr-30 12:14N 55°33' E 014°22'0 0.0
2016-Apr-30 11:32N 55°33' E 014°22'0 0.0
2016-Apr-30 10:32N 55°33' E 014°22'0 0.0
2016-Apr-30 09:26N 55°33' E 014°22'0 0.0
2016-Apr-30 08:32N 55°33' E 014°22'0 0.0
2016-Apr-30 07:32N 55°33' E 014°22'0 0.0
2016-Apr-30 06:32N 55°33' E 014°22'0 0.0
2016-Apr-30 05:20N 55°33' E 014°22'0 0.0
2016-Apr-30 04:20N 55°33' E 014°22'0 0.0
2016-Apr-30 03:32N 55°33' E 014°22'0 0.0
2016-Apr-30 02:26N 55°33' E 014°22'0 0.0
2016-Apr-30 01:32N 55°33' E 014°22'0 0.0
2016-Apr-29 23:32N 55°33' E 014°22'0 0.0
2016-Apr-29 22:32N 55°33' E 014°22'0 0.0
2016-Apr-29 21:32N 55°33' E 014°22'0 0.0
2016-Apr-29 20:32N 55°33' E 014°22'0 0.0
2016-Apr-29 19:32N 55°33' E 014°22'0 0.0
2016-Apr-29 18:20N 55°33' E 014°22'0 0.0
2016-Apr-29 17:20N 55°33' E 014°22'0 0.0
2016-Apr-29 16:32N 55°33' E 014°22'0 0.0
2016-Apr-29 15:08N 55°33' E 014°22'0 0.0
2016-Apr-29 14:32N 55°33' E 014°22'0 0.0
2016-Apr-29 13:14N 55°33' E 014°22'0 0.0
2016-Apr-29 12:20N 55°33' E 014°22'0 0.0
2016-Apr-29 11:32N 55°33' E 014°22'0 0.0
2016-Apr-29 10:32N 55°33' E 014°22'0 0.0
2016-Apr-29 09:32N 55°33' E 014°22'0 0.0
2016-Apr-29 08:32N 55°33' E 014°22'0 0.0
2016-Apr-29 07:32N 55°33' E 014°22'0 0.0
2016-Apr-29 06:20N 55°33' E 014°22'0 0.0
2016-Apr-29 05:20N 55°33' E 014°22'0 0.0
2016-Apr-29 04:32N 55°33' E 014°22'0 0.0
2016-Apr-29 03:32N 55°33' E 014°22'0 0.0
2016-Apr-29 02:32N 55°33' E 014°22'0 0.0
2016-Apr-29 01:32N 55°33' E 014°22'0 0.0
2016-Apr-29 00:26N 55°33' E 014°22'0 0.0
2016-Apr-28 23:32N 55°33' E 014°22'0 0.0
2016-Apr-28 22:32N 55°33' E 014°22'0 0.0
2016-Apr-28 21:32N 55°33' E 014°22'0 0.0
2016-Apr-28 20:32N 55°33' E 014°22'0 0.0
2016-Apr-28 19:26N 55°33' E 014°22'0 0.0
2016-Apr-28 18:32N 55°33' E 014°22'0 0.0
2016-Apr-28 17:32N 55°33' E 014°22'4 3.8
2016-Apr-28 16:33N 55°34' E 014°28'6 5.4
2016-Apr-28 15:30N 55°35' E 014°38'2 1.6
2016-Apr-28 14:34N 55°34' E 014°39'3 3.1
2016-Apr-28 13:32N 55°32' E 014°44'3 2.8
2016-Apr-28 12:33N 55°31' E 014°48'3 2.9
2016-Apr-28 11:33N 55°30' E 014°53'3 3.0
2016-Apr-28 10:31N 55°30' E 014°58'3 1.6
2016-Apr-28 08:33N 55°30' E 014°53'3 2.9
2016-Apr-28 07:33N 55°30' E 014°48'3 3.0
2016-Apr-28 06:31N 55°32' E 014°43'3 2.8
2016-Apr-28 05:33N 55°34' E 014°39'3 2.9
2016-Apr-28 04:33N 55°35' E 014°35'5 5.2
2016-Apr-28 03:33N 55°34' E 014°26'3 2.6
2016-Apr-28 02:32N 55°33' E 014°22'0 0.0
2016-Apr-28 01:26N 55°33' E 014°22'0 0.0
2016-Apr-28 00:32N 55°33' E 014°22'0 0.0
2016-Apr-27 23:32N 55°33' E 014°22'0 0.0
2016-Apr-27 22:32N 55°33' E 014°22'0 0.0
2016-Apr-27 21:32N 55°33' E 014°22'0 0.0
2016-Apr-27 20:32N 55°33' E 014°22'0 0.0
2016-Apr-27 19:32N 55°33' E 014°22'0 0.0
2016-Apr-27 18:20N 55°33' E 014°22'0 0.0
2016-Apr-27 17:32N 55°33' E 014°22'0 0.0
2016-Apr-27 16:32N 55°33' E 014°22'0 0.0
2016-Apr-27 15:32N 55°33' E 014°22'0 0.0
2016-Apr-27 14:26N 55°33' E 014°22'0 0.0
2016-Apr-27 13:14N 55°33' E 014°22'0 0.0
2016-Apr-27 12:32N 55°33' E 014°22'0 0.0
2016-Apr-27 11:32N 55°33' E 014°22'0 0.0
2016-Apr-27 10:32N 55°33' E 014°22'0 0.0
2016-Apr-27 09:32N 55°33' E 014°22'0 0.0
2016-Apr-27 08:32N 55°33' E 014°22'0 0.0
2016-Apr-27 07:32N 55°33' E 014°22'0 0.0
2016-Apr-27 06:26N 55°33' E 014°22'0 0.0
2016-Apr-27 05:26N 55°33' E 014°22'0 0.0
2016-Apr-27 04:32N 55°33' E 014°22'0 0.0
2016-Apr-27 03:32N 55°33' E 014°22'0 0.0
2016-Apr-27 02:32N 55°33' E 014°22'0 0.0
2016-Apr-27 01:32N 55°33' E 014°22'0 0.0
2016-Apr-27 00:20N 55°33' E 014°22'0 0.0
2016-Apr-26 23:32N 55°33' E 014°22'0 0.0
2016-Apr-26 22:32N 55°33' E 014°22'0 0.0
2016-Apr-26 21:32N 55°33' E 014°22'0 0.0
2016-Apr-26 20:32N 55°33' E 014°22'0 0.0
2016-Apr-26 19:32N 55°33' E 014°22'0 0.0
2016-Apr-26 18:32N 55°33' E 014°22'0 0.0
2016-Apr-26 17:32N 55°33' E 014°22'0 0.0
2016-Apr-26 16:32N 55°33' E 014°22'0 0.0
2016-Apr-26 15:14N 55°33' E 014°22'0 0.0
2016-Apr-26 14:32N 55°33' E 014°22'0 0.0
2016-Apr-26 13:32N 55°33' E 014°22'0 0.0
2016-Apr-26 12:08N 55°33' E 014°22'0 0.0
2016-Apr-26 11:32N 55°33' E 014°22'0 0.0
2016-Apr-26 10:32N 55°33' E 014°22'0 0.0
2016-Apr-26 09:32N 55°33' E 014°22'0 0.0
2016-Apr-26 08:32N 55°33' E 014°22'0 0.0
2016-Apr-26 07:32N 55°33' E 014°22'0 0.0
2016-Apr-26 06:32N 55°33' E 014°22'0 0.0
2016-Apr-26 05:32N 55°33' E 014°22'0 0.0
2016-Apr-26 04:26N 55°33' E 014°22'0 0.0
2016-Apr-26 03:32N 55°33' E 014°22'0 0.0
2016-Apr-26 02:32N 55°33' E 014°22'0 0.0
2016-Apr-26 01:32N 55°33' E 014°22'0 0.0
2016-Apr-26 00:32N 55°33' E 014°22'0 0.0
2016-Apr-25 23:32N 55°33' E 014°22'0 0.0
2016-Apr-25 22:32N 55°33' E 014°22'0 0.0
2016-Apr-25 21:32N 55°33' E 014°22'0 0.0
2016-Apr-25 20:32N 55°33' E 014°22'0 0.0
2016-Apr-25 19:26N 55°33' E 014°22'0 0.0
2016-Apr-25 18:26N 55°33' E 014°22'0 0.0
2016-Apr-25 17:32N 55°33' E 014°22'3 2.9
2016-Apr-25 16:33N 55°34' E 014°26'5 4.7
2016-Apr-25 15:33N 55°35' E 014°34'2 1.5
2016-Apr-25 14:33N 55°35' E 014°37'3 3.0
2016-Apr-25 13:32N 55°33' E 014°41'3 3.0
2016-Apr-25 12:33N 55°32' E 014°46'3 2.7
2016-Apr-25 11:33N 55°30' E 014°49'3 2.9
2016-Apr-25 10:33N 55°29' E 014°55'3 2.8
2016-Apr-25 09:29N 55°30' E 014°60'5 2.5
2016-Apr-25 07:33N 55°29' E 014°51'3 2.9
2016-Apr-25 06:33N 55°31' E 014°47'3 3.1
2016-Apr-25 05:33N 55°32' E 014°42'3 3.0
2016-Apr-25 04:33N 55°34' E 014°38'4 3.9
2016-Apr-25 03:31N 55°35' E 014°31'6 5.6
2016-Apr-25 02:30N 55°33' E 014°22'0 0.0
2016-Apr-25 01:24N 55°33' E 014°22'0 0.0
2016-Apr-25 00:30N 55°33' E 014°22'0 0.0
2016-Apr-24 23:30N 55°33' E 014°21'0 0.0
2016-Apr-24 22:30N 55°33' E 014°22'0 0.0
2016-Apr-24 21:30N 55°33' E 014°22'0 0.0
2016-Apr-24 20:30N 55°33' E 014°22'0 0.0
2016-Apr-24 19:30N 55°33' E 014°22'0 0.0
2016-Apr-24 18:30N 55°33' E 014°22'0 0.0
2016-Apr-24 17:24N 55°33' E 014°22'0 0.0
2016-Apr-24 16:30N 55°33' E 014°22'0 0.0
2016-Apr-24 15:24N 55°33' E 014°22'0 0.0
2016-Apr-24 14:30N 55°33' E 014°22'0 0.0
2016-Apr-24 13:24N 55°33' E 014°22'0 0.0
2016-Apr-24 12:30N 55°33' E 014°22'0 0.0
2016-Apr-24 11:18N 55°33' E 014°22'0 0.0
2016-Apr-24 10:30N 55°33' E 014°22'0 0.0
2016-Apr-24 09:24N 55°33' E 014°22'0 0.0
2016-Apr-24 08:24N 55°33' E 014°22'0 0.0
2016-Apr-24 07:30N 55°33' E 014°22'0 0.0
2016-Apr-24 06:30N 55°33' E 014°22'0 0.0
2016-Apr-24 04:30N 55°33' E 014°21'0 0.0
2016-Apr-24 03:30N 55°33' E 014°22'0 0.0
2016-Apr-24 02:30N 55°33' E 014°22'0 0.0
2016-Apr-24 01:30N 55°33' E 014°22'0 0.0
2016-Apr-24 00:30N 55°33' E 014°22'0 0.0
2016-Apr-23 23:30N 55°33' E 014°22'0 0.0
2016-Apr-23 22:31N 55°33' E 014°22'0 0.0
2016-Apr-23 21:31N 55°33' E 014°22'0 0.0
2016-Apr-23 20:31N 55°33' E 014°22'0 0.0
2016-Apr-23 19:19N 55°33' E 014°22'0 0.0
2016-Apr-23 18:31N 55°33' E 014°22'0 0.0
2016-Apr-23 17:19N 55°33' E 014°22'0 0.0
2016-Apr-23 16:25N 55°33' E 014°22'0 0.0
2016-Apr-23 15:31N 55°33' E 014°22'0 0.0
2016-Apr-23 14:31N 55°33' E 014°22'0 0.0
2016-Apr-23 13:31N 55°33' E 014°22'0 0.0
2016-Apr-23 12:31N 55°33' E 014°22'0 0.0
2016-Apr-23 11:19N 55°33' E 014°22'0 0.0
2016-Apr-23 10:31N 55°33' E 014°22'0 0.0
2016-Apr-23 09:31N 55°33' E 014°22'0 0.0
2016-Apr-23 08:31N 55°33' E 014°22'0 0.0
2016-Apr-23 07:31N 55°33' E 014°22'0 0.0
2016-Apr-23 06:31N 55°33' E 014°22'0 0.0
2016-Apr-23 05:31N 55°33' E 014°22'0 0.0
2016-Apr-23 04:31N 55°33' E 014°22'0 0.0
2016-Apr-23 03:31N 55°33' E 014°22'0 0.0
2016-Apr-23 02:31N 55°33' E 014°22'0 0.0
2016-Apr-23 01:25N 55°33' E 014°22'0 0.0
2016-Apr-23 00:31N 55°33' E 014°22'0 0.0
2016-Apr-22 23:31N 55°33' E 014°22'0 0.0
2016-Apr-22 22:31N 55°33' E 014°22'0 0.0
2016-Apr-22 21:31N 55°33' E 014°22'0 0.0
2016-Apr-22 20:25N 55°33' E 014°22'0 0.0
2016-Apr-22 19:25N 55°33' E 014°22'0 0.0
2016-Apr-22 18:31N 55°33' E 014°22'0 0.0
2016-Apr-22 17:31N 55°33' E 014°22'0 0.0
2016-Apr-22 16:25N 55°33' E 014°22'0 0.0
2016-Apr-22 15:31N 55°33' E 014°22'0 0.0
2016-Apr-22 14:31N 55°33' E 014°22'0 0.0
2016-Apr-22 13:31N 55°33' E 014°22'0 0.0
2016-Apr-22 12:31N 55°33' E 014°22'0 0.0
2016-Apr-22 11:31N 55°33' E 014°22'  

Dump ship's entire track history